createdAt,value
2022-09-14T00:00:36.871Z,10.13
2022-09-14T00:03:28.272Z,9.97
2022-09-14T00:05:58.740Z,9.85
2022-09-14T00:08:28.722Z,9.84
2022-09-14T00:10:58.920Z,9.91
2022-09-14T00:13:29.099Z,10.00
2022-09-14T00:16:03.819Z,10.09
2022-09-14T00:18:36.371Z,9.98
2022-09-14T00:21:08.750Z,9.95
2022-09-14T00:23:40.669Z,10.10
2022-09-14T00:26:12.999Z,10.22
2022-09-14T00:28:45.540Z,10.19
2022-09-14T00:31:16.108Z,10.32
2022-09-14T00:33:49.813Z,10.72
2022-09-14T00:36:22.049Z,10.83
2022-09-14T00:38:53.142Z,10.89
2022-09-14T00:41:25.639Z,10.97
2022-09-14T00:43:59.040Z,11.18
2022-09-14T00:46:31.215Z,11.31
2022-09-14T00:49:05.779Z,11.63
2022-09-14T00:51:38.032Z,11.71
2022-09-14T00:54:08.524Z,11.80
2022-09-14T00:56:39.101Z,11.95
2022-09-14T00:59:16.189Z,12.06
2022-09-14T01:01:46.501Z,12.00
2022-09-14T01:04:18.730Z,12.06
2022-09-14T01:06:58.499Z,12.07
2022-09-14T01:09:40.899Z,12.19
2022-09-14T01:12:20.809Z,12.39
2022-09-14T01:15:00.528Z,12.45
2022-09-14T01:17:39.168Z,12.43
2022-09-14T01:20:22.340Z,12.44
2022-09-14T01:23:10.408Z,12.48
2022-09-14T01:26:08.331Z,12.42
2022-09-14T01:28:46.310Z,12.48
2022-09-14T01:31:23.637Z,12.49
2022-09-14T01:34:01.170Z,12.53
2022-09-14T01:36:34.458Z,12.58
2022-09-14T01:39:05.481Z,12.61
2022-09-14T01:41:37.601Z,12.64
2022-09-14T01:44:15.200Z,12.59
2022-09-14T01:46:48.848Z,12.54
2022-09-14T01:49:24.088Z,12.55
2022-09-14T01:52:00.250Z,12.49
2022-09-14T01:54:36.030Z,12.46
2022-09-14T01:57:10.998Z,12.39
2022-09-14T01:59:46.110Z,12.36
2022-09-14T02:02:22.336Z,12.39
2022-09-14T02:04:56.110Z,12.37
2022-09-14T02:07:26.763Z,12.35
2022-09-14T02:09:58.098Z,12.33
2022-09-14T02:12:28.479Z,12.30
2022-09-14T02:14:59.989Z,12.28
2022-09-14T02:17:31.830Z,12.26
2022-09-14T02:20:04.443Z,12.17
2022-09-14T02:22:34.861Z,12.12
2022-09-14T02:25:05.935Z,12.11
2022-09-14T02:27:36.138Z,12.02
2022-09-14T02:30:09.130Z,11.91
2022-09-14T02:32:49.650Z,11.87
2022-09-14T02:35:24.809Z,11.83
2022-09-14T02:38:03.524Z,11.90
2022-09-14T02:40:37.357Z,11.90
2022-09-14T02:43:22.801Z,11.88
2022-09-14T02:46:02.835Z,11.91
2022-09-14T02:48:42.404Z,11.87
2022-09-14T02:51:22.510Z,11.84
2022-09-14T02:53:59.769Z,11.85
2022-09-14T02:56:31.418Z,11.79
2022-09-14T02:59:01.648Z,11.74
2022-09-14T03:01:33.421Z,11.74
2022-09-14T03:04:03.931Z,11.73
2022-09-14T03:06:34.210Z,11.72
2022-09-14T03:09:04.860Z,11.78
2022-09-14T03:11:34.852Z,11.73
2022-09-14T03:14:05.030Z,11.72
2022-09-14T03:16:36.396Z,11.68
2022-09-14T03:19:06.908Z,11.69
2022-09-14T03:21:39.513Z,11.64
2022-09-14T03:24:09.886Z,11.59
2022-09-14T03:26:39.934Z,11.58
2022-09-14T03:29:10.156Z,11.52
2022-09-14T03:31:41.588Z,11.53
2022-09-14T03:34:13.274Z,11.49
2022-09-14T03:36:43.194Z,11.45
2022-09-14T03:39:13.524Z,11.40
2022-09-14T03:41:43.375Z,11.46
2022-09-14T03:44:13.304Z,11.42
2022-09-14T03:46:46.748Z,11.45
2022-09-14T03:49:17.006Z,11.42
2022-09-14T03:51:47.295Z,11.37
2022-09-14T03:54:17.245Z,11.38
2022-09-14T03:56:47.195Z,11.36
2022-09-14T03:59:17.364Z,11.32
2022-09-14T04:01:49.229Z,11.29
2022-09-14T04:04:19.454Z,11.25
2022-09-14T04:06:49.496Z,11.25
2022-09-14T04:09:19.758Z,11.17
2022-09-14T04:11:50.320Z,11.14
2022-09-14T04:14:20.225Z,11.12
2022-09-14T04:16:51.745Z,11.11
2022-09-14T04:19:21.885Z,11.18
2022-09-14T04:21:51.955Z,11.34
2022-09-14T04:24:23.837Z,11.36
2022-09-14T04:26:56.515Z,11.46
2022-09-14T04:29:26.499Z,11.54
2022-09-14T04:31:57.862Z,11.59
2022-09-14T04:34:28.271Z,11.69
2022-09-14T04:36:58.255Z,11.77
2022-09-14T04:39:28.208Z,11.84
2022-09-14T04:41:58.415Z,11.91
2022-09-14T04:44:28.422Z,11.97
2022-09-14T04:46:59.957Z,12.05
2022-09-14T04:49:30.243Z,12.11
2022-09-14T04:52:00.654Z,12.16
2022-09-14T04:54:30.902Z,12.24
2022-09-14T04:57:00.773Z,12.25
2022-09-14T04:59:30.721Z,12.31
2022-09-14T05:02:02.545Z,12.38
2022-09-14T05:04:32.602Z,12.42
2022-09-14T05:07:02.722Z,12.42
2022-09-14T05:09:32.674Z,12.44
2022-09-14T05:12:03.032Z,12.40
2022-09-14T05:14:33.486Z,12.38
2022-09-14T05:17:05.111Z,12.31
2022-09-14T05:19:35.411Z,12.26
2022-09-14T05:22:05.494Z,12.23
2022-09-14T05:24:36.221Z,12.19
2022-09-14T05:27:06.671Z,12.17
2022-09-14T05:29:36.663Z,12.14
2022-09-14T05:32:08.612Z,12.13
2022-09-14T05:34:38.513Z,12.15
2022-09-14T05:37:08.671Z,12.16
2022-09-14T05:39:38.770Z,12.17
2022-09-14T05:42:09.091Z,12.20
2022-09-14T05:44:39.122Z,12.26
2022-09-14T05:47:10.472Z,12.29
2022-09-14T05:49:40.632Z,12.31
2022-09-14T05:52:10.533Z,12.31
2022-09-14T05:54:40.406Z,12.37
2022-09-14T05:57:13.282Z,12.40
2022-09-14T05:59:43.894Z,12.43
2022-09-14T06:02:18.150Z,12.47
2022-09-14T06:04:49.146Z,12.50
2022-09-14T06:07:19.412Z,12.54
2022-09-14T06:09:49.621Z,12.61
2022-09-14T06:12:19.953Z,12.72
2022-09-14T06:14:50.252Z,12.79
2022-09-14T06:17:21.552Z,12.87
2022-09-14T06:19:52.712Z,13.12
2022-09-14T06:22:23.213Z,13.33
2022-09-14T06:24:54.186Z,13.49
2022-09-14T06:27:24.334Z,13.57
2022-09-14T06:29:55.085Z,13.55
2022-09-14T06:32:27.872Z,13.51
2022-09-14T06:34:58.353Z,13.57
2022-09-14T06:37:28.801Z,13.61
2022-09-14T06:40:00.139Z,13.60
2022-09-14T06:42:32.821Z,13.50
2022-09-14T06:45:03.393Z,13.44
2022-09-14T06:47:36.181Z,13.19
2022-09-14T06:50:07.353Z,13.06
2022-09-14T06:52:40.532Z,13.05
2022-09-14T06:55:11.473Z,12.87
2022-09-14T06:57:43.155Z,12.77
2022-09-14T07:00:15.950Z,12.73
2022-09-14T07:02:50.360Z,12.82
2022-09-14T07:05:23.107Z,12.91
2022-09-14T07:07:54.018Z,13.12
2022-09-14T07:10:24.241Z,13.24
2022-09-14T07:12:54.621Z,13.36
2022-09-14T07:15:24.468Z,13.49
2022-09-14T07:17:56.221Z,13.65
2022-09-14T07:20:26.480Z,13.74
2022-09-14T07:22:57.119Z,13.78
2022-09-14T07:25:26.943Z,13.87
2022-09-14T07:27:57.091Z,14.28
2022-09-14T07:30:28.355Z,14.60
2022-09-14T07:33:00.073Z,14.59
2022-09-14T07:35:29.632Z,15.27
2022-09-14T07:37:59.872Z,15.66
2022-09-14T07:40:29.792Z,15.77
2022-09-14T07:43:02.152Z,16.10
2022-09-14T07:45:32.117Z,16.51
2022-09-14T07:48:04.082Z,16.82
2022-09-14T07:50:34.205Z,16.23
2022-09-14T07:53:04.330Z,15.95
2022-09-14T07:55:34.432Z,15.69
2022-09-14T07:58:04.450Z,15.55
2022-09-14T08:00:34.813Z,15.41
2022-09-14T08:03:06.343Z,15.42
2022-09-14T08:05:36.411Z,15.19
2022-09-14T08:08:06.282Z,15.21
2022-09-14T08:10:37.670Z,15.31
2022-09-14T08:13:07.892Z,15.86
2022-09-14T08:15:38.030Z,15.68
2022-09-14T08:18:11.700Z,15.77
2022-09-14T08:20:41.571Z,15.45
2022-09-14T08:23:11.801Z,15.67
2022-09-14T08:25:41.672Z,16.36
2022-09-14T08:28:11.772Z,17.12
2022-09-14T08:30:41.892Z,17.12
2022-09-14T08:33:13.182Z,16.59
2022-09-14T08:36:01.624Z,16.88
2022-09-14T08:38:32.083Z,16.35
2022-09-14T08:41:13.672Z,16.62
2022-09-14T08:43:43.235Z,16.91
2022-09-14T08:46:24.261Z,16.94
2022-09-14T08:48:55.962Z,17.18
2022-09-14T08:51:26.821Z,16.94
2022-09-14T08:53:59.785Z,16.61
2022-09-14T08:56:35.592Z,16.28
2022-09-14T08:59:29.158Z,16.02
2022-09-14T09:02:14.640Z,16.13
2022-09-14T09:04:54.192Z,16.26
2022-09-14T09:07:34.379Z,16.20
2022-09-14T09:10:07.915Z,16.30
2022-09-14T09:12:41.001Z,16.03
2022-09-14T09:15:22.278Z,15.93
2022-09-14T09:17:57.150Z,15.86
2022-09-14T09:20:32.078Z,15.88
2022-09-14T09:23:13.562Z,15.64
2022-09-14T09:25:58.040Z,15.54
2022-09-14T09:28:30.880Z,15.57
2022-09-14T09:31:05.691Z,15.67
2022-09-14T09:33:56.129Z,15.56
2022-09-14T09:36:30.679Z,15.67
2022-09-14T09:39:04.995Z,15.79
2022-09-14T09:41:46.108Z,16.25
2022-09-14T09:44:17.047Z,16.67
2022-09-14T09:46:53.269Z,16.48
2022-09-14T09:49:26.626Z,16.22
2022-09-14T09:51:58.143Z,15.94
2022-09-14T09:54:32.310Z,16.16
2022-09-14T09:57:05.049Z,16.47
2022-09-14T09:59:37.560Z,16.22
2022-09-14T10:02:25.302Z,16.67
2022-09-14T10:05:01.901Z,17.56
2022-09-14T10:07:35.288Z,18.41
2022-09-14T10:10:08.311Z,19.02
2022-09-14T10:12:39.950Z,18.44
2022-09-14T10:15:27.173Z,17.64
2022-09-14T10:18:06.659Z,17.13
2022-09-14T10:20:38.421Z,17.09
2022-09-14T10:23:31.331Z,16.96
2022-09-14T10:26:26.909Z,16.73
2022-09-14T10:29:16.959Z,16.77
2022-09-14T10:31:48.764Z,17.00
2022-09-14T10:34:21.943Z,17.43
2022-09-14T10:36:59.410Z,17.53
2022-09-14T10:39:41.132Z,17.27
2022-09-14T10:42:19.606Z,17.46
2022-09-14T10:45:10.552Z,17.62
2022-09-14T10:48:07.112Z,17.74
2022-09-14T10:50:46.972Z,17.25
2022-09-14T10:53:34.020Z,17.35
2022-09-14T10:56:10.452Z,17.35
2022-09-14T10:58:56.342Z,17.33
2022-09-14T11:01:39.761Z,17.52
2022-09-14T11:04:27.598Z,17.63
2022-09-14T11:07:08.240Z,17.75
2022-09-14T11:09:46.280Z,18.01
2022-09-14T11:12:26.641Z,17.79
2022-09-14T11:15:08.901Z,17.74
2022-09-14T11:17:53.850Z,17.54
2022-09-14T11:20:32.702Z,17.55
2022-09-14T11:23:19.902Z,17.55
2022-09-14T11:25:56.201Z,17.25
2022-09-14T11:28:32.631Z,17.39
2022-09-14T11:31:08.411Z,17.10
2022-09-14T11:33:42.343Z,17.02
2022-09-14T11:36:21.440Z,17.17
2022-09-14T11:38:54.918Z,17.02
2022-09-14T11:41:30.949Z,17.15
2022-09-14T11:44:06.630Z,17.15
2022-09-14T11:46:39.761Z,17.20
2022-09-14T11:49:19.062Z,17.18
2022-09-14T11:51:53.932Z,16.98
2022-09-14T11:54:25.310Z,17.20
2022-09-14T11:57:00.193Z,17.23
2022-09-14T11:59:54.370Z,17.53
2022-09-14T12:03:02.460Z,17.45
2022-09-14T12:05:35.460Z,17.31
2022-09-14T12:08:26.694Z,17.35
2022-09-14T12:11:05.273Z,17.05
2022-09-14T12:13:35.862Z,17.17
2022-09-14T12:16:09.496Z,17.19
2022-09-14T12:18:41.914Z,17.12
2022-09-14T12:21:23.092Z,17.12
2022-09-14T12:23:58.080Z,17.37
2022-09-14T12:26:34.170Z,17.48
2022-09-14T12:29:24.737Z,17.71
2022-09-14T12:32:22.143Z,17.49
2022-09-14T12:35:30.979Z,17.39
2022-09-14T12:38:01.492Z,17.11
2022-09-14T12:40:37.688Z,17.25
2022-09-14T12:43:50.321Z,17.18
2022-09-14T12:46:40.437Z,17.11
2022-09-14T12:49:40.188Z,17.03
2022-09-14T12:52:30.310Z,17.03
2022-09-14T12:55:20.272Z,17.00
2022-09-14T12:58:09.009Z,16.83
2022-09-14T13:00:54.790Z,16.67
2022-09-14T13:03:51.827Z,16.56
2022-09-14T13:06:24.700Z,16.56
2022-09-14T13:08:58.654Z,16.63
2022-09-14T13:11:34.329Z,16.58
2022-09-14T13:14:05.065Z,16.61
2022-09-14T13:16:44.497Z,16.72
2022-09-14T13:19:27.350Z,16.76
2022-09-14T13:22:00.368Z,16.88
2022-09-14T13:24:35.076Z,16.94
2022-09-14T13:27:06.652Z,17.42
2022-09-14T13:29:37.440Z,18.33
2022-09-14T13:32:08.261Z,18.57
2022-09-14T13:34:41.331Z,18.34
2022-09-14T13:37:16.424Z,18.30
2022-09-14T13:39:52.635Z,17.79
2022-09-14T13:42:23.636Z,17.54
2022-09-14T13:44:54.035Z,17.44
2022-09-14T13:47:25.870Z,17.31
2022-09-14T13:49:57.770Z,17.33
2022-09-14T13:53:00.471Z,17.30
2022-09-14T13:55:29.275Z,17.39
2022-09-14T13:58:21.770Z,16.88
2022-09-14T14:01:04.070Z,16.81
2022-09-14T14:03:38.238Z,16.75
2022-09-14T14:06:25.535Z,16.75
2022-09-14T14:09:00.974Z,16.75
2022-09-14T14:11:35.614Z,16.71
2022-09-14T14:14:28.834Z,16.74
2022-09-14T14:17:33.142Z,16.71
2022-09-14T14:20:18.584Z,16.80
2022-09-14T14:22:59.329Z,16.74
2022-09-14T14:25:42.139Z,16.69
2022-09-14T14:28:20.122Z,16.69
2022-09-14T14:30:53.376Z,16.73
2022-09-14T14:33:25.319Z,16.81
2022-09-14T14:35:57.057Z,16.80
2022-09-14T14:38:27.584Z,16.81
2022-09-14T14:40:59.046Z,16.67
2022-09-14T14:43:30.192Z,16.57
2022-09-14T14:46:02.187Z,16.58
2022-09-14T14:48:32.754Z,16.54
2022-09-14T14:51:02.714Z,16.53
2022-09-14T14:53:34.964Z,16.60
2022-09-14T14:56:07.293Z,16.54
2022-09-14T14:58:46.428Z,16.52
2022-09-14T15:01:16.937Z,16.60
2022-09-14T15:03:49.861Z,16.52
2022-09-14T15:06:25.272Z,16.52
2022-09-14T15:08:58.464Z,16.51
2022-09-14T15:11:33.237Z,16.53
2022-09-14T15:14:08.115Z,16.44
2022-09-14T15:16:41.205Z,16.42
2022-09-14T15:19:12.603Z,16.33
2022-09-14T15:21:44.821Z,16.31
2022-09-14T15:24:16.331Z,16.34
2022-09-14T15:26:47.906Z,16.24
2022-09-14T15:29:20.284Z,16.18
2022-09-14T15:31:50.280Z,16.12
2022-09-14T15:34:22.972Z,16.12
2022-09-14T15:36:55.415Z,16.18
2022-09-14T15:39:35.149Z,16.29
2022-09-14T15:42:08.714Z,16.40
2022-09-14T15:44:42.748Z,16.45
2022-09-14T15:47:15.954Z,16.49
2022-09-14T15:49:46.362Z,16.33
2022-09-14T15:52:17.764Z,16.23
2022-09-14T15:54:51.422Z,16.05
2022-09-14T15:57:24.034Z,16.00
2022-09-14T15:59:57.916Z,15.89
2022-09-14T16:02:30.253Z,15.88
2022-09-14T16:05:00.583Z,15.84
2022-09-14T16:07:36.665Z,15.82
2022-09-14T16:10:11.979Z,15.74
2022-09-14T16:12:44.274Z,15.67
2022-09-14T16:15:18.019Z,15.60
2022-09-14T16:17:53.430Z,15.60
2022-09-14T16:20:25.794Z,15.55
2022-09-14T16:22:58.804Z,15.43
2022-09-14T16:25:35.919Z,15.44
2022-09-14T16:28:10.110Z,15.37
2022-09-14T16:30:40.406Z,15.33
2022-09-14T16:33:10.605Z,15.34
2022-09-14T16:35:41.484Z,15.30
2022-09-14T16:38:11.675Z,15.15
2022-09-14T16:40:43.444Z,15.06
2022-09-14T16:43:17.141Z,14.98
2022-09-14T16:45:47.416Z,14.85
2022-09-14T16:48:19.086Z,14.77
2022-09-14T16:50:54.970Z,14.62
2022-09-14T16:53:26.482Z,14.49
2022-09-14T16:56:03.612Z,14.43
2022-09-14T16:58:36.675Z,14.33
2022-09-14T17:01:09.123Z,14.21
2022-09-14T17:03:41.040Z,14.11
2022-09-14T17:06:16.958Z,14.01
2022-09-14T17:08:49.272Z,13.94
2022-09-14T17:11:20.972Z,13.86
2022-09-14T17:13:56.173Z,13.88
2022-09-14T17:16:29.377Z,13.83
2022-09-14T17:19:04.304Z,13.80
2022-09-14T17:21:36.593Z,13.72
2022-09-14T17:24:08.491Z,13.65
2022-09-14T17:26:42.990Z,13.61
2022-09-14T17:29:17.933Z,13.52
2022-09-14T17:31:48.763Z,13.45
2022-09-14T17:34:19.398Z,13.39
2022-09-14T17:36:50.723Z,13.24
2022-09-14T17:39:23.578Z,13.14
2022-09-14T17:41:56.541Z,13.11
2022-09-14T17:44:32.431Z,13.13
2022-09-14T17:47:05.952Z,13.18
2022-09-14T17:49:37.384Z,13.18
2022-09-14T17:52:09.814Z,13.13
2022-09-14T17:54:41.257Z,13.11
2022-09-14T17:57:12.456Z,13.16
2022-09-14T17:59:44.484Z,13.07
2022-09-14T18:02:16.884Z,13.01
2022-09-14T18:04:49.005Z,13.02
2022-09-14T18:07:19.546Z,13.00
2022-09-14T18:09:56.539Z,13.01
2022-09-14T18:12:31.353Z,13.05
2022-09-14T18:17:36.621Z,13.11
2022-09-14T18:20:09.338Z,13.11
2022-09-14T18:22:39.913Z,13.12
2022-09-14T18:25:11.520Z,13.14
2022-09-14T18:27:41.354Z,13.16
2022-09-14T18:30:16.536Z,13.18
2022-09-14T18:32:47.194Z,13.16
2022-09-14T18:35:17.573Z,13.19
2022-09-14T18:37:47.565Z,13.22
2022-09-14T18:40:20.260Z,13.23
2022-09-14T18:42:50.757Z,13.30
2022-09-14T18:45:22.262Z,13.35
2022-09-14T18:47:55.047Z,13.40
2022-09-14T18:50:27.193Z,13.41
2022-09-14T18:52:59.186Z,13.16
2022-09-14T18:55:28.923Z,13.44
2022-09-14T18:57:59.175Z,13.47
2022-09-14T19:00:31.727Z,13.54
2022-09-14T19:03:04.846Z,13.50
2022-09-14T19:05:34.726Z,13.54
2022-09-14T19:08:05.046Z,13.50
2022-09-14T19:10:37.081Z,13.49
2022-09-14T19:13:09.794Z,13.51
2022-09-14T19:15:43.680Z,13.55
2022-09-14T19:18:15.412Z,13.50
2022-09-14T19:21:05.878Z,13.52
2022-09-14T19:23:37.876Z,13.55
2022-09-14T19:26:09.513Z,13.60
2022-09-14T19:28:43.105Z,13.55
2022-09-14T19:31:17.607Z,13.51
2022-09-14T19:33:47.994Z,13.49
2022-09-14T19:36:20.445Z,13.47
2022-09-14T19:38:52.462Z,13.48
2022-09-14T19:41:25.942Z,13.45
2022-09-14T19:43:58.179Z,13.37
2022-09-14T19:46:31.468Z,13.40
2022-09-14T19:49:03.895Z,13.34
2022-09-14T19:51:33.824Z,13.35
2022-09-14T19:54:06.341Z,13.39
2022-09-14T19:56:37.679Z,13.45
2022-09-14T19:59:09.235Z,13.45
2022-09-14T20:01:41.922Z,13.45
2022-09-14T20:04:13.016Z,13.49
2022-09-14T20:06:45.427Z,13.48
2022-09-14T20:09:19.778Z,13.44
2022-09-14T20:11:52.731Z,13.45
2022-09-14T20:14:25.673Z,13.44
2022-09-14T20:17:00.044Z,13.41
2022-09-14T20:19:31.368Z,13.39
2022-09-14T20:22:01.344Z,13.39
2022-09-14T20:24:32.801Z,13.35
2022-09-14T20:27:03.712Z,13.39
2022-09-14T20:29:36.104Z,13.37
2022-09-14T20:32:08.251Z,13.42
2022-09-14T20:34:38.641Z,13.36
2022-09-14T20:37:08.563Z,13.37
2022-09-14T20:39:38.645Z,13.37
2022-09-14T20:42:09.089Z,13.37
2022-09-14T20:44:39.045Z,13.37
2022-09-14T20:47:10.507Z,13.36
2022-09-14T20:49:40.735Z,13.35
2022-09-14T20:52:10.711Z,13.34
2022-09-14T20:54:41.023Z,13.34
2022-09-14T20:57:10.936Z,13.31
2022-09-14T20:59:40.950Z,13.32
2022-09-14T21:02:13.293Z,13.31
2022-09-14T21:04:43.499Z,13.34
2022-09-14T21:07:13.716Z,13.31
2022-09-14T21:09:44.035Z,13.29
2022-09-14T21:12:15.513Z,13.28
2022-09-14T21:14:48.240Z,13.34
2022-09-14T21:17:20.052Z,13.33
2022-09-14T21:19:50.063Z,13.32
2022-09-14T21:22:21.377Z,13.31
2022-09-14T21:24:51.253Z,13.31
2022-09-14T21:27:21.322Z,13.32
2022-09-14T21:29:52.052Z,13.27
2022-09-14T21:32:23.644Z,13.25
2022-09-14T21:34:53.275Z,13.27
2022-09-14T21:37:26.756Z,13.29
2022-09-14T21:39:56.870Z,13.33
2022-09-14T21:42:27.603Z,13.34
2022-09-14T21:44:57.492Z,13.35
2022-09-14T21:47:28.947Z,13.35
2022-09-14T21:49:59.217Z,13.34
2022-09-14T21:52:29.136Z,13.35
2022-09-14T21:54:59.008Z,13.34
2022-09-14T21:57:29.222Z,13.33
2022-09-14T21:59:59.055Z,13.37
2022-09-14T22:02:30.532Z,13.42
2022-09-14T22:05:00.755Z,13.41
2022-09-14T22:07:30.706Z,13.40
2022-09-14T22:10:00.897Z,13.40
2022-09-14T22:12:32.463Z,13.43
2022-09-14T22:15:02.707Z,13.42
2022-09-14T22:17:34.335Z,13.40
2022-09-14T22:20:05.259Z,13.37
2022-09-14T22:22:35.275Z,13.36
2022-09-14T22:25:06.733Z,13.39
2022-09-14T22:27:37.195Z,13.39
2022-09-14T22:30:08.514Z,13.40
2022-09-14T22:32:39.914Z,13.41
2022-09-14T22:35:10.603Z,13.39
2022-09-14T22:37:40.603Z,13.37
2022-09-14T22:40:11.596Z,13.33
2022-09-14T22:42:41.992Z,13.32
2022-09-14T22:45:12.532Z,13.34
2022-09-14T22:47:43.943Z,13.33
2022-09-14T22:50:14.114Z,13.33
2022-09-14T22:52:44.167Z,13.31
2022-09-14T22:55:15.451Z,13.29
2022-09-14T22:57:45.699Z,13.27
2022-09-14T23:00:16.603Z,13.27
2022-09-14T23:02:48.280Z,13.20
2022-09-14T23:05:17.985Z,13.15
2022-09-14T23:07:48.295Z,13.07
2022-09-14T23:10:18.411Z,13.01
2022-09-14T23:12:48.310Z,12.97
2022-09-14T23:15:18.894Z,12.96
2022-09-14T23:17:52.182Z,12.98
2022-09-14T23:20:22.602Z,12.90
2022-09-14T23:22:52.575Z,12.87
2022-09-14T23:25:22.819Z,12.89
2022-09-14T23:27:52.772Z,12.91
2022-09-14T23:30:22.802Z,12.92
2022-09-14T23:32:54.591Z,12.93
2022-09-14T23:35:24.221Z,12.92
2022-09-14T23:37:54.367Z,12.83
2022-09-14T23:40:24.557Z,12.81
2022-09-14T23:42:54.848Z,12.74
2022-09-14T23:45:25.074Z,12.75
2022-09-14T23:47:56.443Z,12.75
2022-09-14T23:50:26.753Z,12.76
2022-09-14T23:52:57.870Z,12.79
2022-09-14T23:55:28.115Z,12.80
2022-09-14T23:57:58.123Z,12.81
